sensor_id;sensor_type;location;lat;lon;timestamp;P1;durP1;ratioP1;P2;durP2;ratioP2
62535;SDS011;63050;47.514;18.920;2023-11-19T00:03:33;6.50;;;4.20;;
62535;SDS011;63050;47.514;18.920;2023-11-19T00:08:35;6.30;;;3.70;;
62535;SDS011;63050;47.514;18.920;2023-11-19T00:13:36;5.80;;;3.80;;
62535;SDS011;63050;47.514;18.920;2023-11-19T00:18:37;5.80;;;3.70;;
62535;SDS011;63050;47.514;18.920;2023-11-19T00:23:37;6.50;;;4.00;;
62535;SDS011;63050;47.514;18.920;2023-11-19T00:28:38;8.20;;;4.00;;
62535;SDS011;63050;47.514;18.920;2023-11-19T00:33:39;8.70;;;4.40;;
62535;SDS011;63050;47.514;18.920;2023-11-19T00:38:40;7.90;;;3.80;;
62535;SDS011;63050;47.514;18.920;2023-11-19T00:43:41;6.30;;;3.70;;
62535;SDS011;63050;47.514;18.920;2023-11-19T00:48:42;5.50;;;3.60;;
62535;SDS011;63050;47.514;18.920;2023-11-19T00:53:42;6.60;;;3.90;;
62535;SDS011;63050;47.514;18.920;2023-11-19T00:58:43;4.80;;;3.60;;
62535;SDS011;63050;47.514;18.920;2023-11-19T01:03:44;8.60;;;3.80;;
62535;SDS011;63050;47.514;18.920;2023-11-19T01:08:44;5.90;;;3.40;;
62535;SDS011;63050;47.514;18.920;2023-11-19T01:13:45;6.00;;;3.10;;
62535;SDS011;63050;47.514;18.920;2023-11-19T01:18:46;4.90;;;3.10;;
62535;SDS011;63050;47.514;18.920;2023-11-19T01:23:47;5.10;;;2.60;;
62535;SDS011;63050;47.514;18.920;2023-11-19T01:28:48;4.30;;;2.60;;
62535;SDS011;63050;47.514;18.920;2023-11-19T01:33:49;4.70;;;2.70;;
62535;SDS011;63050;47.514;18.920;2023-11-19T01:38:50;4.20;;;2.50;;
62535;SDS011;63050;47.514;18.920;2023-11-19T01:43:50;4.80;;;2.80;;
62535;SDS011;63050;47.514;18.920;2023-11-19T01:48:51;5.60;;;2.90;;
62535;SDS011;63050;47.514;18.920;2023-11-19T01:53:53;4.90;;;2.50;;
62535;SDS011;63050;47.514;18.920;2023-11-19T01:58:54;4.30;;;2.70;;
62535;SDS011;63050;47.514;18.920;2023-11-19T02:03:55;4.70;;;2.50;;
62535;SDS011;63050;47.514;18.920;2023-11-19T02:08:58;4.60;;;2.60;;
62535;SDS011;63050;47.514;18.920;2023-11-19T02:13:59;6.10;;;2.50;;
62535;SDS011;63050;47.514;18.920;2023-11-19T02:19:00;4.00;;;2.80;;
62535;SDS011;63050;47.514;18.920;2023-11-19T02:24:02;7.00;;;3.00;;
62535;SDS011;63050;47.514;18.920;2023-11-19T02:29:07;4.60;;;2.70;;
62535;SDS011;63050;47.514;18.920;2023-11-19T02:34:10;3.90;;;2.70;;
62535;SDS011;63050;47.514;18.920;2023-11-19T02:39:12;3.30;;;2.10;;
62535;SDS011;63050;47.514;18.920;2023-11-19T02:44:13;4.70;;;2.50;;
62535;SDS011;63050;47.514;18.920;2023-11-19T02:49:14;3.40;;;2.10;;
62535;SDS011;63050;47.514;18.920;2023-11-19T02:54:16;4.10;;;2.40;;
62535;SDS011;63050;47.514;18.920;2023-11-19T02:59:16;8.10;;;3.20;;
62535;SDS011;63050;47.514;18.920;2023-11-19T03:04:27;4.90;;;2.60;;
62535;SDS011;63050;47.514;18.920;2023-11-19T03:09:29;3.20;;;2.20;;
62535;SDS011;63050;47.514;18.920;2023-11-19T03:14:30;4.70;;;2.30;;
62535;SDS011;63050;47.514;18.920;2023-11-19T03:19:32;3.30;;;2.10;;
62535;SDS011;63050;47.514;18.920;2023-11-19T03:24:33;3.80;;;2.50;;
62535;SDS011;63050;47.514;18.920;2023-11-19T03:29:34;6.60;;;2.70;;
62535;SDS011;63050;47.514;18.920;2023-11-19T03:34:35;4.60;;;2.20;;
62535;SDS011;63050;47.514;18.920;2023-11-19T03:39:36;5.30;;;2.60;;
62535;SDS011;63050;47.514;18.920;2023-11-19T03:44:37;4.70;;;2.60;;
62535;SDS011;63050;47.514;18.920;2023-11-19T03:49:38;4.60;;;2.30;;
62535;SDS011;63050;47.514;18.920;2023-11-19T03:54:39;4.30;;;2.30;;
62535;SDS011;63050;47.514;18.920;2023-11-19T03:59:39;4.70;;;2.50;;
62535;SDS011;63050;47.514;18.920;2023-11-19T04:04:41;6.00;;;2.80;;
62535;SDS011;63050;47.514;18.920;2023-11-19T04:09:41;4.00;;;2.30;;
62535;SDS011;63050;47.514;18.920;2023-11-19T04:14:43;3.60;;;2.40;;
62535;SDS011;63050;47.514;18.920;2023-11-19T04:19:44;5.90;;;2.80;;
62535;SDS011;63050;47.514;18.920;2023-11-19T04:24:45;5.10;;;2.60;;
62535;SDS011;63050;47.514;18.920;2023-11-19T04:29:46;4.30;;;2.70;;
62535;SDS011;63050;47.514;18.920;2023-11-19T04:34:47;3.60;;;2.50;;
62535;SDS011;63050;47.514;18.920;2023-11-19T04:39:48;3.60;;;2.40;;
62535;SDS011;63050;47.514;18.920;2023-11-19T04:44:49;3.80;;;2.10;;
62535;SDS011;63050;47.514;18.920;2023-11-19T04:49:50;3.10;;;2.00;;
62535;SDS011;63050;47.514;18.920;2023-11-19T04:54:51;3.20;;;2.20;;
62535;SDS011;63050;47.514;18.920;2023-11-19T04:59:52;4.80;;;2.60;;
62535;SDS011;63050;47.514;18.920;2023-11-19T05:04:52;5.60;;;2.50;;
62535;SDS011;63050;47.514;18.920;2023-11-19T05:09:53;3.70;;;2.10;;
62535;SDS011;63050;47.514;18.920;2023-11-19T05:14:54;4.70;;;2.50;;
62535;SDS011;63050;47.514;18.920;2023-11-19T05:19:54;3.70;;;2.30;;
62535;SDS011;63050;47.514;18.920;2023-11-19T05:24:55;4.10;;;2.50;;
62535;SDS011;63050;47.514;18.920;2023-11-19T05:29:56;5.30;;;2.70;;
62535;SDS011;63050;47.514;18.920;2023-11-19T05:34:57;4.90;;;2.60;;
62535;SDS011;63050;47.514;18.920;2023-11-19T05:39:58;4.40;;;2.60;;
62535;SDS011;63050;47.514;18.920;2023-11-19T05:45:00;4.00;;;2.60;;
62535;SDS011;63050;47.514;18.920;2023-11-19T05:50:01;5.70;;;3.30;;
62535;SDS011;63050;47.514;18.920;2023-11-19T05:55:02;4.40;;;2.80;;
62535;SDS011;63050;47.514;18.920;2023-11-19T06:00:10;5.20;;;2.60;;
62535;SDS011;63050;47.514;18.920;2023-11-19T06:05:13;6.80;;;3.60;;
62535;SDS011;63050;47.514;18.920;2023-11-19T06:10:14;4.00;;;3.10;;
62535;SDS011;63050;47.514;18.920;2023-11-19T06:15:17;4.30;;;2.90;;
62535;SDS011;63050;47.514;18.920;2023-11-19T06:20:17;5.20;;;3.00;;
62535;SDS011;63050;47.514;18.920;2023-11-19T06:25:20;5.20;;;3.30;;
62535;SDS011;63050;47.514;18.920;2023-11-19T06:30:21;6.20;;;3.60;;
62535;SDS011;63050;47.514;18.920;2023-11-19T06:35:21;4.90;;;3.00;;
62535;SDS011;63050;47.514;18.920;2023-11-19T06:40:22;5.50;;;2.80;;
62535;SDS011;63050;47.514;18.920;2023-11-19T06:45:23;8.30;;;4.10;;
62535;SDS011;63050;47.514;18.920;2023-11-19T06:50:24;6.00;;;3.40;;
62535;SDS011;63050;47.514;18.920;2023-11-19T06:55:25;5.00;;;3.60;;
62535;SDS011;63050;47.514;18.920;2023-11-19T07:00:26;6.50;;;3.40;;
62535;SDS011;63050;47.514;18.920;2023-11-19T07:05:27;7.40;;;3.70;;
62535;SDS011;63050;47.514;18.920;2023-11-19T07:10:29;7.10;;;3.90;;
62535;SDS011;63050;47.514;18.920;2023-11-19T07:15:30;7.40;;;4.20;;
62535;SDS011;63050;47.514;18.920;2023-11-19T07:20:31;6.40;;;3.90;;
62535;SDS011;63050;47.514;18.920;2023-11-19T07:25:33;9.40;;;4.70;;
62535;SDS011;63050;47.514;18.920;2023-11-19T07:30:35;7.00;;;4.10;;
62535;SDS011;63050;47.514;18.920;2023-11-19T07:35:36;8.80;;;4.70;;
62535;SDS011;63050;47.514;18.920;2023-11-19T07:40:37;7.60;;;5.40;;
62535;SDS011;63050;47.514;18.920;2023-11-19T07:45:37;10.70;;;5.70;;
62535;SDS011;63050;47.514;18.920;2023-11-19T07:50:39;10.80;;;6.00;;
62535;SDS011;63050;47.514;18.920;2023-11-19T07:55:41;9.10;;;5.80;;
62535;SDS011;63050;47.514;18.920;2023-11-19T08:00:42;8.50;;;4.90;;
62535;SDS011;63050;47.514;18.920;2023-11-19T08:05:42;7.70;;;4.90;;
62535;SDS011;63050;47.514;18.920;2023-11-19T08:10:43;11.10;;;6.10;;
62535;SDS011;63050;47.514;18.920;2023-11-19T08:16:09;8.00;;;4.90;;
62535;SDS011;63050;47.514;18.920;2023-11-19T08:21:10;7.60;;;5.40;;
62535;SDS011;63050;47.514;18.920;2023-11-19T08:26:11;10.40;;;7.50;;
62535;SDS011;63050;47.514;18.920;2023-11-19T08:31:11;10.40;;;7.00;;
62535;SDS011;63050;47.514;18.920;2023-11-19T08:36:15;10.80;;;6.30;;
62535;SDS011;63050;47.514;18.920;2023-11-19T08:41:17;8.90;;;6.10;;
62535;SDS011;63050;47.514;18.920;2023-11-19T08:46:19;10.20;;;6.40;;
62535;SDS011;63050;47.514;18.920;2023-11-19T08:51:20;12.40;;;7.50;;
62535;SDS011;63050;47.514;18.920;2023-11-19T08:56:21;10.10;;;6.50;;
62535;SDS011;63050;47.514;18.920;2023-11-19T09:01:21;13.90;;;7.70;;
62535;SDS011;63050;47.514;18.920;2023-11-19T09:06:22;13.20;;;7.10;;
62535;SDS011;63050;47.514;18.920;2023-11-19T09:11:23;13.70;;;7.60;;
62535;SDS011;63050;47.514;18.920;2023-11-19T09:16:24;11.70;;;6.90;;
62535;SDS011;63050;47.514;18.920;2023-11-19T09:21:26;10.10;;;6.90;;
62535;SDS011;63050;47.514;18.920;2023-11-19T09:26:26;14.20;;;7.80;;
62535;SDS011;63050;47.514;18.920;2023-11-19T09:31:27;12.80;;;8.70;;
62535;SDS011;63050;47.514;18.920;2023-11-19T09:36:28;15.00;;;8.90;;
62535;SDS011;63050;47.514;18.920;2023-11-19T09:41:29;11.10;;;7.10;;
62535;SDS011;63050;47.514;18.920;2023-11-19T09:46:31;13.60;;;8.40;;
62535;SDS011;63050;47.514;18.920;2023-11-19T09:51:32;16.90;;;10.00;;
62535;SDS011;63050;47.514;18.920;2023-11-19T09:56:33;15.00;;;11.30;;
62535;SDS011;63050;47.514;18.920;2023-11-19T10:01:37;11.30;;;8.30;;
62535;SDS011;63050;47.514;18.920;2023-11-19T10:06:38;13.70;;;8.80;;
62535;SDS011;63050;47.514;18.920;2023-11-19T10:11:39;10.90;;;8.40;;
62535;SDS011;63050;47.514;18.920;2023-11-19T10:16:40;12.60;;;8.10;;
62535;SDS011;63050;47.514;18.920;2023-11-19T10:21:41;12.10;;;8.60;;
62535;SDS011;63050;47.514;18.920;2023-11-19T10:26:42;11.80;;;8.30;;
62535;SDS011;63050;47.514;18.920;2023-11-19T10:31:48;11.30;;;8.70;;
62535;SDS011;63050;47.514;18.920;2023-11-19T10:36:56;13.30;;;8.80;;
62535;SDS011;63050;47.514;18.920;2023-11-19T10:41:57;13.90;;;9.20;;
62535;SDS011;63050;47.514;18.920;2023-11-19T10:46:58;11.90;;;8.10;;
62535;SDS011;63050;47.514;18.920;2023-11-19T10:51:59;12.90;;;7.70;;
62535;SDS011;63050;47.514;18.920;2023-11-19T10:57:01;10.50;;;7.60;;
62535;SDS011;63050;47.514;18.920;2023-11-19T11:02:03;14.30;;;10.20;;
62535;SDS011;63050;47.514;18.920;2023-11-19T11:07:07;11.00;;;7.80;;
62535;SDS011;63050;47.514;18.920;2023-11-19T11:12:09;10.90;;;8.10;;
62535;SDS011;63050;47.514;18.920;2023-11-19T11:17:10;11.70;;;8.90;;
62535;SDS011;63050;47.514;18.920;2023-11-19T11:22:11;17.40;;;8.90;;
62535;SDS011;63050;47.514;18.920;2023-11-19T11:32:25;12.60;;;8.60;;
62535;SDS011;63050;47.514;18.920;2023-11-19T11:37:34;14.80;;;9.90;;
62535;SDS011;63050;47.514;18.920;2023-11-19T11:42:48;16.70;;;8.50;;
62535;SDS011;63050;47.514;18.920;2023-11-19T11:58:00;13.50;;;9.80;;
62535;SDS011;63050;47.514;18.920;2023-11-19T12:03:01;12.40;;;9.20;;
62535;SDS011;63050;47.514;18.920;2023-11-19T12:08:03;12.00;;;8.80;;
62535;SDS011;63050;47.514;18.920;2023-11-19T12:13:07;12.70;;;9.20;;
62535;SDS011;63050;47.514;18.920;2023-11-19T12:18:08;12.90;;;8.90;;
62535;SDS011;63050;47.514;18.920;2023-11-19T12:23:09;14.40;;;9.50;;
62535;SDS011;63050;47.514;18.920;2023-11-19T12:28:13;12.90;;;8.80;;
62535;SDS011;63050;47.514;18.920;2023-11-19T12:33:17;10.40;;;8.40;;
62535;SDS011;63050;47.514;18.920;2023-11-19T12:38:25;11.30;;;9.40;;
62535;SDS011;63050;47.514;18.920;2023-11-19T12:43:26;11.20;;;8.30;;
62535;SDS011;63050;47.514;18.920;2023-11-19T12:48:27;14.20;;;8.80;;
62535;SDS011;63050;47.514;18.920;2023-11-19T12:53:28;11.80;;;8.60;;
62535;SDS011;63050;47.514;18.920;2023-11-19T13:03:38;13.00;;;9.10;;
62535;SDS011;63050;47.514;18.920;2023-11-19T13:08:49;16.10;;;10.00;;
62535;SDS011;63050;47.514;18.920;2023-11-19T13:24:10;12.70;;;9.40;;
62535;SDS011;63050;47.514;18.920;2023-11-19T13:29:11;13.60;;;9.50;;
62535;SDS011;63050;47.514;18.920;2023-11-19T13:34:11;15.30;;;10.10;;
62535;SDS011;63050;47.514;18.920;2023-11-19T13:39:12;15.20;;;9.40;;
62535;SDS011;63050;47.514;18.920;2023-11-19T13:44:13;12.90;;;8.70;;
62535;SDS011;63050;47.514;18.920;2023-11-19T13:49:14;11.70;;;8.80;;
62535;SDS011;63050;47.514;18.920;2023-11-19T13:54:16;12.90;;;9.10;;
62535;SDS011;63050;47.514;18.920;2023-11-19T13:59:16;13.40;;;9.10;;
62535;SDS011;63050;47.514;18.920;2023-11-19T14:04:17;17.10;;;10.20;;
62535;SDS011;63050;47.514;18.920;2023-11-19T14:09:18;13.30;;;8.90;;
62535;SDS011;63050;47.514;18.920;2023-11-19T14:14:19;12.60;;;10.00;;
62535;SDS011;63050;47.514;18.920;2023-11-19T14:19:20;13.10;;;9.70;;
62535;SDS011;63050;47.514;18.920;2023-11-19T14:24:21;14.40;;;9.30;;
62535;SDS011;63050;47.514;18.920;2023-11-19T14:29:23;16.50;;;9.90;;
62535;SDS011;63050;47.514;18.920;2023-11-19T14:34:23;13.50;;;9.00;;
62535;SDS011;63050;47.514;18.920;2023-11-19T14:39:25;13.80;;;9.50;;
62535;SDS011;63050;47.514;18.920;2023-11-19T14:44:29;12.70;;;9.00;;
62535;SDS011;63050;47.514;18.920;2023-11-19T14:49:30;12.90;;;8.90;;
62535;SDS011;63050;47.514;18.920;2023-11-19T14:54:31;15.50;;;9.80;;
62535;SDS011;63050;47.514;18.920;2023-11-19T14:59:32;13.10;;;9.60;;
62535;SDS011;63050;47.514;18.920;2023-11-19T15:04:33;14.70;;;9.20;;
62535;SDS011;63050;47.514;18.920;2023-11-19T15:09:34;12.60;;;9.00;;
62535;SDS011;63050;47.514;18.920;2023-11-19T15:14:36;13.60;;;9.50;;
62535;SDS011;63050;47.514;18.920;2023-11-19T15:19:38;13.70;;;9.20;;
62535;SDS011;63050;47.514;18.920;2023-11-19T15:24:39;13.40;;;9.00;;
62535;SDS011;63050;47.514;18.920;2023-11-19T15:29:42;14.40;;;9.40;;
62535;SDS011;63050;47.514;18.920;2023-11-19T15:34:42;12.60;;;8.80;;
62535;SDS011;63050;47.514;18.920;2023-11-19T15:39:43;11.60;;;8.60;;
62535;SDS011;63050;47.514;18.920;2023-11-19T15:44:44;12.50;;;9.00;;
62535;SDS011;63050;47.514;18.920;2023-11-19T15:49:45;35.40;;;19.40;;
62535;SDS011;63050;47.514;18.920;2023-11-19T15:54:48;13.10;;;9.80;;
62535;SDS011;63050;47.514;18.920;2023-11-19T15:59:49;13.00;;;9.70;;
62535;SDS011;63050;47.514;18.920;2023-11-19T16:04:51;15.10;;;11.60;;
62535;SDS011;63050;47.514;18.920;2023-11-19T16:09:52;14.40;;;10.20;;
62535;SDS011;63050;47.514;18.920;2023-11-19T16:14:53;14.70;;;10.20;;
62535;SDS011;63050;47.514;18.920;2023-11-19T16:19:54;13.30;;;9.70;;
62535;SDS011;63050;47.514;18.920;2023-11-19T16:24:55;15.30;;;11.00;;
62535;SDS011;63050;47.514;18.920;2023-11-19T16:29:56;13.90;;;10.20;;
62535;SDS011;63050;47.514;18.920;2023-11-19T16:34:57;12.80;;;8.90;;
62535;SDS011;63050;47.514;18.920;2023-11-19T16:39:58;13.20;;;9.30;;
62535;SDS011;63050;47.514;18.920;2023-11-19T16:44:59;14.00;;;9.60;;
62535;SDS011;63050;47.514;18.920;2023-11-19T16:50:00;11.20;;;8.70;;
62535;SDS011;63050;47.514;18.920;2023-11-19T16:55:01;13.60;;;9.30;;
62535;SDS011;63050;47.514;18.920;2023-11-19T17:00:05;10.50;;;7.90;;
62535;SDS011;63050;47.514;18.920;2023-11-19T17:05:11;10.10;;;7.80;;
62535;SDS011;63050;47.514;18.920;2023-11-19T17:10:12;15.50;;;9.20;;
62535;SDS011;63050;47.514;18.920;2023-11-19T17:15:13;19.00;;;14.80;;
62535;SDS011;63050;47.514;18.920;2023-11-19T17:20:14;17.20;;;12.00;;
62535;SDS011;63050;47.514;18.920;2023-11-19T17:25:15;21.40;;;13.20;;
62535;SDS011;63050;47.514;18.920;2023-11-19T17:30:17;18.60;;;13.80;;
62535;SDS011;63050;47.514;18.920;2023-11-19T17:35:18;18.90;;;13.50;;
62535;SDS011;63050;47.514;18.920;2023-11-19T17:40:19;19.40;;;12.90;;
62535;SDS011;63050;47.514;18.920;2023-11-19T17:45:21;17.90;;;13.90;;
62535;SDS011;63050;47.514;18.920;2023-11-19T17:50:25;32.40;;;20.20;;
62535;SDS011;63050;47.514;18.920;2023-11-19T17:55:26;31.70;;;20.90;;
62535;SDS011;63050;47.514;18.920;2023-11-19T18:00:27;23.10;;;15.70;;
62535;SDS011;63050;47.514;18.920;2023-11-19T18:05:28;21.50;;;14.40;;
62535;SDS011;63050;47.514;18.920;2023-11-19T18:10:29;17.50;;;12.30;;
62535;SDS011;63050;47.514;18.920;2023-11-19T18:15:29;18.70;;;13.10;;
62535;SDS011;63050;47.514;18.920;2023-11-19T18:20:31;17.10;;;12.50;;
62535;SDS011;63050;47.514;18.920;2023-11-19T18:25:31;14.40;;;10.70;;
62535;SDS011;63050;47.514;18.920;2023-11-19T18:30:32;13.50;;;9.90;;
62535;SDS011;63050;47.514;18.920;2023-11-19T18:35:35;10.60;;;8.50;;
62535;SDS011;63050;47.514;18.920;2023-11-19T18:40:37;12.00;;;8.60;;
62535;SDS011;63050;47.514;18.920;2023-11-19T18:45:40;10.40;;;8.10;;
62535;SDS011;63050;47.514;18.920;2023-11-19T18:50:42;14.20;;;9.10;;
62535;SDS011;63050;47.514;18.920;2023-11-19T18:55:45;12.00;;;10.20;;
62535;SDS011;63050;47.514;18.920;2023-11-19T19:00:47;13.30;;;10.50;;
62535;SDS011;63050;47.514;18.920;2023-11-19T19:05:49;20.20;;;16.40;;
62535;SDS011;63050;47.514;18.920;2023-11-19T19:10:52;26.40;;;17.60;;
62535;SDS011;63050;47.514;18.920;2023-11-19T19:15:54;20.10;;;13.70;;
62535;SDS011;63050;47.514;18.920;2023-11-19T19:20:56;17.00;;;12.20;;
62535;SDS011;63050;47.514;18.920;2023-11-19T19:25:58;16.30;;;12.20;;
62535;SDS011;63050;47.514;18.920;2023-11-19T19:31:01;39.10;;;25.40;;
62535;SDS011;63050;47.514;18.920;2023-11-19T19:36:02;32.20;;;20.20;;
62535;SDS011;63050;47.514;18.920;2023-11-19T19:41:03;27.80;;;18.50;;
62535;SDS011;63050;47.514;18.920;2023-11-19T19:46:05;26.70;;;19.00;;
62535;SDS011;63050;47.514;18.920;2023-11-19T19:51:10;25.70;;;17.30;;
62535;SDS011;63050;47.514;18.920;2023-11-19T19:56:11;21.90;;;14.50;;
62535;SDS011;63050;47.514;18.920;2023-11-19T20:01:12;21.10;;;14.00;;
62535;SDS011;63050;47.514;18.920;2023-11-19T20:06:15;16.20;;;11.40;;
62535;SDS011;63050;47.514;18.920;2023-11-19T20:11:16;16.60;;;12.80;;
62535;SDS011;63050;47.514;18.920;2023-11-19T20:16:19;16.80;;;12.40;;
62535;SDS011;63050;47.514;18.920;2023-11-19T20:21:20;17.40;;;11.80;;
62535;SDS011;63050;47.514;18.920;2023-11-19T20:26:21;11.30;;;8.30;;
62535;SDS011;63050;47.514;18.920;2023-11-19T20:31:23;11.50;;;8.20;;
62535;SDS011;63050;47.514;18.920;2023-11-19T20:36:24;13.00;;;10.00;;
62535;SDS011;63050;47.514;18.920;2023-11-19T20:41:25;14.30;;;10.70;;
62535;SDS011;63050;47.514;18.920;2023-11-19T20:46:26;15.00;;;11.40;;
62535;SDS011;63050;47.514;18.920;2023-11-19T20:51:27;13.40;;;9.30;;
62535;SDS011;63050;47.514;18.920;2023-11-19T20:56:29;12.30;;;9.70;;
62535;SDS011;63050;47.514;18.920;2023-11-19T21:01:30;12.10;;;9.30;;
62535;SDS011;63050;47.514;18.920;2023-11-19T21:06:31;12.70;;;8.60;;
62535;SDS011;63050;47.514;18.920;2023-11-19T21:11:33;10.60;;;7.60;;
62535;SDS011;63050;47.514;18.920;2023-11-19T21:16:34;11.30;;;8.30;;
62535;SDS011;63050;47.514;18.920;2023-11-19T21:21:35;11.10;;;7.50;;
62535;SDS011;63050;47.514;18.920;2023-11-19T21:26:36;12.50;;;9.10;;
62535;SDS011;63050;47.514;18.920;2023-11-19T21:31:37;12.30;;;9.60;;
62535;SDS011;63050;47.514;18.920;2023-11-19T21:36:38;10.80;;;8.40;;
62535;SDS011;63050;47.514;18.920;2023-11-19T21:41:39;10.50;;;7.50;;
62535;SDS011;63050;47.514;18.920;2023-11-19T21:46:40;13.70;;;7.40;;
62535;SDS011;63050;47.514;18.920;2023-11-19T21:51:41;9.00;;;7.20;;
62535;SDS011;63050;47.514;18.920;2023-11-19T21:56:42;12.10;;;8.10;;
62535;SDS011;63050;47.514;18.920;2023-11-19T22:01:43;10.50;;;7.80;;
62535;SDS011;63050;47.514;18.920;2023-11-19T22:06:45;12.20;;;9.10;;
62535;SDS011;63050;47.514;18.920;2023-11-19T22:11:45;11.40;;;8.40;;
62535;SDS011;63050;47.514;18.920;2023-11-19T22:16:47;14.10;;;8.20;;
62535;SDS011;63050;47.514;18.920;2023-11-19T22:21:48;13.10;;;9.40;;
62535;SDS011;63050;47.514;18.920;2023-11-19T22:26:49;11.60;;;9.00;;
62535;SDS011;63050;47.514;18.920;2023-11-19T22:31:49;12.20;;;8.40;;
62535;SDS011;63050;47.514;18.920;2023-11-19T22:36:50;13.20;;;9.30;;
62535;SDS011;63050;47.514;18.920;2023-11-19T22:41:51;14.90;;;10.80;;
62535;SDS011;63050;47.514;18.920;2023-11-19T22:46:52;13.10;;;9.40;;
62535;SDS011;63050;47.514;18.920;2023-11-19T22:51:53;12.40;;;9.10;;
62535;SDS011;63050;47.514;18.920;2023-11-19T22:56:54;15.40;;;10.50;;
62535;SDS011;63050;47.514;18.920;2023-11-19T23:01:55;11.80;;;9.00;;
62535;SDS011;63050;47.514;18.920;2023-11-19T23:06:56;11.20;;;8.60;;
62535;SDS011;63050;47.514;18.920;2023-11-19T23:11:56;13.50;;;9.20;;
62535;SDS011;63050;47.514;18.920;2023-11-19T23:16:58;12.50;;;8.90;;
62535;SDS011;63050;47.514;18.920;2023-11-19T23:21:59;13.80;;;9.00;;
62535;SDS011;63050;47.514;18.920;2023-11-19T23:27:00;14.20;;;9.30;;
62535;SDS011;63050;47.514;18.920;2023-11-19T23:32:01;13.40;;;9.00;;
62535;SDS011;63050;47.514;18.920;2023-11-19T23:37:03;12.10;;;8.40;;
62535;SDS011;63050;47.514;18.920;2023-11-19T23:42:06;15.80;;;9.60;;
62535;SDS011;63050;47.514;18.920;2023-11-19T23:47:07;12.60;;;9.30;;
62535;SDS011;63050;47.514;18.920;2023-11-19T23:52:08;13.50;;;9.30;;
62535;SDS011;63050;47.514;18.920;2023-11-19T23:57:09;14.40;;;10.30;;
